ENRS

Røst Airport

Norway
METAR ENRS 251650Z 08006KT 9999 SCT032 M02/M08 Q1043
Observed Flight Rules
Feb-25 @ 16:50 UTC (10 hours ago) Visual Flight Rules
Wind Visibility Clouds
80° at 6 knots 10,000+ meters
  • Scattered at 3,200' AGL
Temperatures Readings
Current -2°C / 28°F
Dewpoint -8°C / 18°F
Humidity 64%
Altimeter 30.8" Hg
Pressure 1043 hPa
Elevation 4
METAR ENRS 251650Z 08006KT 9999 SCT032 M02/M08 Q1043
Observed Flight Rules
Feb-25 @ 16:50 UTC
(10 hours ago)
VFR
Wind Visibility
80° at 6 knots 10,000+ meters
Clouds
  • Scattered at 3,200' AGL
Temperature Dewpoint
-2°C / 28°F -8°C / 18°F
Humidity Altimeter Pressure
64% 30.8" Hg 1043 hPa